createdAt,value
2022-10-13T00:03:52.768Z,975.66
2022-10-13T00:13:52.803Z,975.86
2022-10-13T00:23:53.011Z,975.90
2022-10-13T00:33:53.167Z,976.08
2022-10-13T00:43:53.429Z,976.03
2022-10-13T00:53:53.458Z,975.87
2022-10-13T01:03:53.686Z,975.93
2022-10-13T01:13:53.856Z,975.97
2022-10-13T01:23:54.272Z,975.91
2022-10-13T01:33:54.189Z,975.86
2022-10-13T01:43:54.464Z,975.76
2022-10-13T01:53:54.518Z,975.70
2022-10-13T02:03:54.738Z,975.61
2022-10-13T02:13:54.885Z,975.64
2022-10-13T02:23:55.117Z,975.58
2022-10-13T02:33:55.248Z,975.60
2022-10-13T02:43:55.550Z,975.60
2022-10-13T02:53:55.775Z,975.70
2022-10-13T03:03:55.766Z,975.70
2022-10-13T03:13:55.848Z,975.65
2022-10-13T03:23:56.038Z,975.69
2022-10-13T03:33:56.161Z,975.52
2022-10-13T03:43:56.381Z,975.50
2022-10-13T03:53:56.518Z,975.32
2022-10-13T04:03:56.815Z,975.13
2022-10-13T04:13:56.762Z,975.17
2022-10-13T04:23:56.963Z,975.26
2022-10-13T04:33:57.120Z,975.21
2022-10-13T04:43:57.333Z,975.18
2022-10-13T04:53:57.462Z,975.02
2022-10-13T05:03:58.155Z,975.00
2022-10-13T05:13:57.739Z,975.00
2022-10-13T05:23:58.057Z,974.85
2022-10-13T05:33:58.084Z,974.81
2022-10-13T05:43:58.372Z,975.06
2022-10-13T05:53:58.399Z,974.97
2022-10-13T06:03:59.047Z,975.13
2022-10-13T06:13:58.753Z,975.23
2022-10-13T06:23:59.182Z,975.09
2022-10-13T06:33:59.105Z,974.93
2022-10-13T06:43:59.283Z,974.92
2022-10-13T06:53:59.434Z,975.07
2022-10-13T07:04:00.543Z,975.07
2022-10-13T07:24:00.008Z,974.86
2022-10-13T07:34:00.149Z,974.79
2022-10-13T07:44:00.383Z,974.68
2022-10-13T07:54:00.524Z,974.80
2022-10-13T08:04:00.783Z,974.76
2022-10-13T08:14:00.816Z,974.80
2022-10-13T08:24:01.017Z,974.81
2022-10-13T08:34:01.150Z,974.66
2022-10-13T08:44:47.580Z,974.47
2022-10-13T08:54:02.477Z,974.41
2022-10-13T09:04:02.253Z,974.35
2022-10-13T09:14:02.034Z,974.29
2022-10-13T09:24:02.048Z,974.34
2022-10-13T09:34:02.300Z,974.21
2022-10-13T09:44:02.243Z,974.12
2022-10-13T09:54:02.533Z,974.16
2022-10-13T10:04:02.690Z,974.09
2022-10-13T10:14:02.783Z,974.10
2022-10-13T10:24:02.874Z,974.32
2022-10-13T10:34:03.030Z,974.16
2022-10-13T10:44:03.237Z,974.04
2022-10-13T10:54:03.381Z,973.93
2022-10-13T11:04:03.585Z,973.73
2022-10-13T11:14:03.763Z,973.61
2022-10-13T11:24:03.976Z,973.52
2022-10-13T11:34:04.097Z,973.39
2022-10-13T11:44:04.264Z,973.29
2022-10-13T11:54:04.401Z,973.30
2022-10-13T12:04:04.592Z,973.06
2022-10-13T12:14:04.746Z,973.07
2022-10-13T12:24:05.058Z,972.97
2022-10-13T12:34:05.156Z,972.79
2022-10-13T12:44:06.781Z,972.73
2022-10-13T12:54:05.435Z,972.53
2022-10-13T13:04:05.649Z,972.48
2022-10-13T13:14:05.945Z,972.28
2022-10-13T13:24:16.282Z,972.23
2022-10-13T13:34:07.166Z,972.27
2022-10-13T13:44:06.385Z,972.26
2022-10-13T13:54:06.752Z,972.12
2022-10-13T14:04:07.053Z,972.21
2022-10-13T14:14:06.866Z,972.17
2022-10-13T14:24:07.040Z,972.18
2022-10-13T14:34:07.247Z,972.14
2022-10-13T14:44:07.327Z,972.08
2022-10-13T14:54:07.456Z,972.04
2022-10-13T15:04:07.794Z,972.12
2022-10-13T15:14:08.057Z,972.07
2022-10-13T15:24:08.034Z,972.08
2022-10-13T15:34:08.301Z,972.18
2022-10-13T15:44:08.379Z,972.02
2022-10-13T15:54:08.567Z,972.09
2022-10-13T16:04:08.850Z,972.00
2022-10-13T16:14:08.759Z,972.00
2022-10-13T16:24:09.105Z,972.12
2022-10-13T16:34:09.146Z,972.15
2022-10-13T16:44:09.346Z,972.12
2022-10-13T16:54:09.604Z,972.32
2022-10-13T17:04:09.864Z,972.46
2022-10-13T17:14:09.870Z,972.62
2022-10-13T17:24:10.152Z,972.59
2022-10-13T17:34:10.187Z,972.52
2022-10-13T17:44:10.402Z,972.44
2022-10-13T17:54:15.555Z,972.46
2022-10-13T18:04:11.820Z,972.32
2022-10-13T18:14:10.909Z,972.36
2022-10-13T18:24:10.984Z,972.47
2022-10-13T18:34:11.074Z,972.48
2022-10-13T18:44:11.255Z,972.54
2022-10-13T18:54:11.392Z,972.53
2022-10-13T19:04:11.704Z,972.52
2022-10-13T19:14:11.740Z,972.39
2022-10-13T19:24:11.917Z,972.23
2022-10-13T19:34:12.065Z,972.23
2022-10-13T19:44:12.233Z,972.43
2022-10-13T19:54:12.372Z,972.34
2022-10-13T20:04:13.046Z,972.35
2022-10-13T20:14:12.754Z,972.30
2022-10-13T20:24:12.935Z,972.39
2022-10-13T20:34:13.068Z,972.45
2022-10-13T20:44:13.261Z,972.49
2022-10-13T20:54:13.407Z,972.66
2022-10-13T21:04:13.602Z,972.69
2022-10-13T21:14:13.824Z,972.71
2022-10-13T21:24:13.898Z,972.74
2022-10-13T21:34:14.033Z,972.65
2022-10-13T21:44:14.211Z,972.66
2022-10-13T21:54:14.349Z,972.66
2022-10-13T22:04:14.543Z,972.66
2022-10-13T22:14:14.693Z,972.66
2022-10-13T22:24:14.871Z,972.76
2022-10-13T22:34:15.025Z,972.78
2022-10-13T22:44:15.206Z,972.79
2022-10-13T22:54:15.341Z,972.77
2022-10-13T23:04:15.545Z,972.75
2022-10-13T23:14:15.700Z,972.73
2022-10-13T23:24:15.880Z,972.69
2022-10-13T23:34:16.016Z,972.66
2022-10-13T23:44:16.193Z,972.72
2022-10-13T23:54:16.329Z,972.56
